Terminal Aerodrome Forecast
Issued by NWS

Home | Current Version | Previous Version | Text Only | Print | Product List | Glossary On
Versions: 1 2 3 4 5 6 7 8 9 10 11 12 13 14 15 16 17 18 19 20
000
FTUS43 KPAH 300100 AAA
TAFCGI
TAF AMD
KCGI 300118Z 3001/3024 18003KT P6SM BKN150
     FM300300 VRB04KT 6SM -SHRA VCTS BKN040CB
      TEMPO 3003/3005 4SM TSRA BR
     FM300900 16004KT 4SM SHRA BR BKN050
     FM301500 20007KT 3SM SHRA BR OVC035=

USA.gov is the U.S. government's official web portal to all federal, state and local government web resources and services.